createdAt,value
2023-02-12T00:01:17.689Z,39.25
2023-02-12T00:03:45.342Z,39.03
2023-02-12T00:06:15.736Z,40.85
2023-02-12T00:08:44.131Z,40.35
2023-02-12T00:11:14.748Z,39.78
2023-02-12T00:13:42.908Z,40.40
2023-02-12T00:16:14.810Z,41.83
2023-02-12T00:18:43.158Z,40.00
2023-02-12T00:21:11.008Z,39.88
2023-02-12T00:23:41.237Z,41.15
2023-02-12T00:26:15.156Z,41.55
2023-02-12T00:28:47.427Z,42.10
2023-02-12T00:31:21.954Z,39.50
2023-02-12T00:33:50.038Z,40.88
2023-02-12T00:36:21.122Z,39.33
2023-02-12T00:38:49.722Z,40.42
2023-02-12T00:41:17.331Z,41.88
2023-02-12T00:43:45.362Z,41.67
2023-02-12T00:46:13.335Z,39.60
2023-02-12T00:48:41.177Z,41.70
2023-02-12T00:51:09.283Z,41.03
2023-02-12T00:53:37.486Z,41.50
2023-02-12T00:56:05.584Z,41.28
2023-02-12T00:58:36.206Z,39.92
2023-02-12T01:01:04.326Z,40.25
2023-02-12T01:03:31.861Z,41.10
2023-02-12T01:06:00.310Z,40.63
2023-02-12T01:08:27.922Z,41.70
2023-02-12T01:11:02.504Z,40.88
2023-02-12T01:13:34.017Z,41.65
2023-02-12T01:16:09.014Z,40.42
2023-02-12T01:18:37.803Z,38.65
2023-02-12T01:21:21.662Z,41.03
2023-02-12T01:23:50.087Z,39.75
2023-02-12T01:26:19.606Z,40.45
2023-02-12T01:28:54.320Z,40.60
2023-02-12T01:31:24.732Z,41.22
2023-02-12T01:33:54.746Z,41.55
2023-02-12T01:36:23.494Z,41.03
2023-02-12T01:38:51.559Z,40.78
2023-02-12T01:41:23.372Z,41.60
2023-02-12T01:44:05.989Z,41.30
2023-02-12T01:46:34.268Z,39.77
2023-02-12T01:49:03.282Z,37.92
2023-02-12T01:51:32.679Z,37.00
2023-02-12T01:54:05.247Z,38.55
2023-02-12T01:56:34.454Z,39.10
2023-02-12T01:59:02.771Z,41.75
2023-02-12T02:01:34.018Z,39.13
2023-02-12T02:04:07.858Z,38.75
2023-02-12T02:06:42.342Z,38.45
2023-02-12T02:09:10.133Z,40.33
2023-02-12T02:11:56.318Z,37.33
2023-02-12T02:14:34.155Z,40.88
2023-02-12T02:17:39.546Z,39.47
2023-02-12T02:20:29.220Z,40.83
2023-02-12T02:23:05.887Z,39.58
2023-02-12T02:26:08.088Z,41.20
2023-02-12T02:29:00.517Z,43.67
2023-02-12T02:31:48.659Z,40.78
2023-02-12T02:34:21.906Z,42.53
2023-02-12T02:37:00.149Z,43.15
2023-02-12T02:40:09.967Z,42.10
2023-02-12T02:42:44.109Z,41.53
2023-02-12T02:45:13.822Z,42.15
2023-02-12T02:47:53.011Z,43.17
2023-02-12T02:50:24.928Z,45.53
2023-02-12T02:53:16.057Z,43.97
2023-02-12T02:55:49.718Z,45.20
2023-02-12T02:58:20.684Z,47.25
2023-02-12T03:01:11.365Z,42.58
2023-02-12T03:03:52.161Z,45.42
2023-02-12T03:06:28.027Z,45.53
2023-02-12T03:09:05.481Z,44.72
2023-02-12T03:11:34.593Z,42.70
2023-02-12T03:14:18.041Z,41.25
2023-02-12T03:17:35.603Z,40.38
2023-02-12T03:20:12.384Z,38.40
2023-02-12T03:22:45.000Z,42.67
2023-02-12T03:25:19.261Z,39.00
2023-02-12T03:28:00.839Z,40.50
2023-02-12T03:30:39.449Z,39.17
2023-02-12T03:33:51.721Z,38.88
2023-02-12T03:36:53.250Z,36.47
2023-02-12T03:39:39.212Z,37.38
2023-02-12T03:42:14.718Z,36.05
2023-02-12T03:44:56.454Z,36.05
2023-02-12T03:47:31.749Z,36.88
2023-02-12T03:50:42.289Z,36.10
2023-02-12T03:53:09.822Z,38.08
2023-02-12T03:55:42.720Z,37.70
2023-02-12T03:58:14.892Z,38.70
2023-02-12T04:00:43.241Z,38.78
2023-02-12T04:03:11.107Z,36.42
2023-02-12T04:05:38.624Z,39.45
2023-02-12T04:08:09.268Z,38.15
2023-02-12T04:11:15.549Z,38.45
2023-02-12T04:13:59.779Z,35.80
2023-02-12T04:16:40.719Z,37.80
2023-02-12T04:19:13.274Z,38.13
2023-02-12T04:21:46.573Z,37.38
2023-02-12T04:24:31.060Z,38.75
2023-02-12T04:27:07.275Z,37.95
2023-02-12T04:29:53.388Z,38.67
2023-02-12T04:32:44.137Z,42.45
2023-02-12T04:35:32.855Z,38.38
2023-02-12T04:38:41.811Z,44.65
2023-02-12T04:41:09.815Z,47.95
2023-02-12T04:43:37.721Z,50.22
2023-02-12T04:46:07.795Z,40.35
2023-02-12T04:48:46.011Z,41.85
2023-02-12T04:51:13.469Z,40.33
2023-02-12T04:53:41.262Z,39.00
2023-02-12T04:56:13.201Z,43.28
2023-02-12T04:58:41.762Z,36.53
2023-02-12T05:01:10.351Z,35.97
2023-02-12T05:03:38.232Z,32.15
2023-02-12T05:06:08.034Z,31.95
2023-02-12T05:08:35.921Z,29.60
2023-02-12T05:11:05.305Z,32.22
2023-02-12T05:13:32.896Z,31.95
2023-02-12T05:16:00.915Z,33.28
2023-02-12T05:18:29.162Z,33.88
2023-02-12T05:20:58.647Z,33.40
2023-02-12T05:23:28.343Z,32.88
2023-02-12T05:25:59.030Z,34.45
2023-02-12T05:28:27.164Z,33.25
2023-02-12T05:30:55.125Z,37.50
2023-02-12T05:33:22.662Z,37.85
2023-02-12T05:35:50.230Z,32.38
2023-02-12T05:38:17.760Z,38.60
2023-02-12T05:45:28.352Z,38.55
2023-02-12T05:47:56.660Z,37.40
2023-02-12T05:50:24.262Z,35.53
2023-02-12T05:53:01.325Z,35.40
2023-02-12T05:55:29.128Z,45.95
2023-02-12T05:57:56.600Z,40.83
2023-02-12T06:00:24.137Z,42.58
2023-02-12T06:02:51.786Z,37.58
2023-02-12T06:05:19.290Z,47.63
2023-02-12T06:07:46.754Z,46.28
2023-02-12T06:10:14.340Z,38.63
2023-02-12T06:12:41.758Z,42.40
2023-02-12T06:15:09.517Z,45.28
2023-02-12T06:17:36.979Z,41.95
2023-02-12T06:20:04.761Z,41.03
2023-02-12T06:22:32.279Z,44.20
2023-02-12T06:24:59.800Z,38.70
2023-02-12T06:27:27.284Z,44.67
2023-02-12T06:29:54.720Z,36.83
2023-02-12T06:32:22.702Z,33.85
2023-02-12T06:34:51.545Z,37.38
2023-02-12T06:37:19.028Z,36.05
2023-02-12T06:39:46.501Z,36.97
2023-02-12T06:42:13.976Z,38.28
2023-02-12T06:44:41.527Z,36.70
2023-02-12T06:47:09.042Z,36.80
2023-02-12T06:49:36.586Z,34.17
2023-02-12T06:52:04.104Z,34.60
2023-02-12T06:54:31.595Z,34.60
2023-02-12T06:56:59.036Z,31.15
2023-02-12T06:59:26.495Z,33.65
2023-02-12T07:01:53.945Z,32.95
2023-02-12T07:04:21.808Z,29.55
2023-02-12T07:06:49.224Z,32.08
2023-02-12T07:09:16.809Z,33.13
2023-02-12T07:11:44.294Z,30.20
2023-02-12T07:14:16.737Z,30.25
2023-02-12T07:16:44.242Z,32.30
2023-02-12T07:19:14.152Z,31.35
2023-02-12T07:21:41.651Z,29.05
2023-02-12T07:24:12.224Z,30.75
2023-02-12T07:26:40.823Z,29.58
2023-02-12T07:29:08.514Z,29.30
2023-02-12T07:31:36.080Z,29.75
2023-02-12T07:34:03.533Z,30.52
2023-02-12T07:36:33.038Z,27.55
2023-02-12T07:39:01.759Z,26.95
2023-02-12T07:41:31.810Z,26.73
2023-02-12T07:44:07.051Z,27.23
2023-02-12T07:46:48.699Z,26.20
2023-02-12T07:49:19.387Z,27.95
2023-02-12T07:51:48.268Z,27.92
2023-02-12T07:54:15.928Z,26.67
2023-02-12T07:56:47.220Z,27.63
2023-02-12T07:59:18.152Z,24.30
2023-02-12T08:01:50.709Z,26.15
2023-02-12T08:04:21.029Z,27.48
2023-02-12T08:06:50.817Z,25.73
2023-02-12T08:09:21.186Z,25.17
2023-02-12T08:11:49.207Z,27.25
2023-02-12T08:14:18.740Z,27.23
2023-02-12T08:16:48.876Z,26.60
2023-02-12T08:19:21.755Z,26.52
2023-02-12T08:21:53.159Z,26.02
2023-02-12T08:24:22.346Z,24.67
2023-02-12T08:26:50.899Z,25.17
2023-02-12T08:29:21.195Z,24.92
2023-02-12T08:31:50.261Z,27.08
2023-02-12T08:34:21.537Z,27.80
2023-02-12T08:36:50.621Z,27.23
2023-02-12T08:39:18.782Z,25.75
2023-02-12T08:41:47.377Z,23.92
2023-02-12T08:44:15.793Z,25.58
2023-02-12T08:46:50.265Z,23.70
2023-02-12T08:49:21.364Z,22.10
2023-02-12T08:51:51.836Z,23.20
2023-02-12T08:54:22.619Z,24.80
2023-02-12T08:56:50.703Z,23.45
2023-02-12T08:59:18.415Z,22.85
2023-02-12T09:01:46.071Z,23.00
2023-02-12T09:04:18.146Z,21.63
2023-02-12T09:06:46.742Z,20.45
2023-02-12T09:09:15.052Z,21.10
2023-02-12T09:11:44.829Z,19.33
2023-02-12T09:14:16.726Z,19.50
2023-02-12T09:16:44.967Z,18.88
2023-02-12T09:19:14.225Z,18.77
2023-02-12T09:21:42.054Z,19.42
2023-02-12T09:24:10.412Z,18.05
2023-02-12T09:26:39.586Z,19.77
2023-02-12T09:29:07.060Z,22.90
2023-02-12T09:31:34.762Z,22.17
2023-02-12T09:34:06.019Z,23.30
2023-02-12T09:36:34.459Z,19.98
2023-02-12T09:39:02.021Z,20.90
2023-02-12T09:41:42.797Z,19.20
2023-02-12T09:44:48.438Z,22.60
2023-02-12T09:47:34.099Z,22.15
2023-02-12T09:50:33.181Z,21.63
2023-02-12T09:53:02.090Z,22.35
2023-02-12T09:55:31.926Z,20.73
2023-02-12T09:58:02.314Z,19.50
2023-02-12T10:00:31.964Z,20.85
2023-02-12T10:03:05.995Z,20.15
2023-02-12T10:05:41.217Z,18.70
2023-02-12T10:08:39.649Z,17.75
2023-02-12T10:11:07.111Z,18.48
2023-02-12T10:13:52.917Z,16.13
2023-02-12T10:16:38.673Z,16.30
2023-02-12T10:19:33.397Z,16.45
2023-02-12T10:22:28.947Z,15.98
2023-02-12T10:25:04.746Z,15.88
2023-02-12T10:27:48.137Z,15.00
2023-02-12T10:30:50.176Z,14.47
2023-02-12T10:33:40.611Z,12.95
2023-02-12T10:36:17.103Z,12.23
2023-02-12T10:38:50.634Z,10.93
2023-02-12T10:41:18.371Z,11.45
2023-02-12T10:43:45.947Z,11.30
2023-02-12T10:46:17.453Z,10.25
2023-02-12T10:48:49.773Z,9.35
2023-02-12T10:51:44.703Z,9.90
2023-02-12T10:54:32.062Z,10.23
2023-02-12T10:57:06.535Z,9.05
2023-02-12T10:59:35.677Z,9.52
2023-02-12T11:02:03.584Z,9.68
2023-02-12T11:04:33.728Z,8.85
2023-02-12T11:07:09.946Z,7.75
2023-02-12T11:09:45.517Z,9.02
2023-02-12T11:12:36.571Z,9.60
2023-02-12T11:15:08.605Z,8.80
2023-02-12T11:17:41.500Z,8.15
2023-02-12T11:20:17.851Z,8.68
2023-02-12T11:22:56.262Z,8.00
2023-02-12T11:25:27.080Z,8.38
2023-02-12T11:28:13.979Z,9.00
2023-02-12T11:30:54.136Z,8.73
2023-02-12T11:33:33.394Z,9.10
2023-02-12T11:36:15.441Z,8.85
2023-02-12T11:39:03.950Z,7.80
2023-02-12T11:41:38.135Z,8.40
2023-02-12T11:44:26.694Z,8.23
2023-02-12T11:47:25.381Z,8.55
2023-02-12T11:50:24.305Z,6.88
2023-02-12T11:52:54.024Z,7.80
2023-02-12T11:55:33.404Z,7.80
2023-02-12T11:58:13.352Z,7.55
2023-02-12T12:00:52.312Z,8.68
2023-02-12T12:03:34.933Z,7.95
2023-02-12T12:06:26.832Z,7.10
2023-02-12T12:09:03.287Z,6.43
2023-02-12T12:11:41.267Z,7.18
2023-02-12T12:14:24.659Z,7.07
2023-02-12T12:17:27.637Z,6.30
2023-02-12T12:20:14.326Z,6.25
2023-02-12T12:23:11.280Z,5.60
2023-02-12T12:25:44.503Z,5.72
2023-02-12T12:28:34.654Z,5.72
2023-02-12T12:31:15.128Z,6.43
2023-02-12T12:33:53.513Z,6.30
2023-02-12T12:36:51.295Z,5.97
2023-02-12T12:39:47.121Z,6.28
2023-02-12T12:42:20.410Z,6.97
2023-02-12T12:45:15.531Z,5.45
2023-02-12T12:48:01.404Z,5.57
2023-02-12T12:50:45.965Z,5.38
2023-02-12T12:53:34.530Z,5.80
2023-02-12T12:56:05.051Z,5.97
2023-02-12T12:58:38.732Z,6.57
2023-02-12T13:01:34.230Z,6.63
2023-02-12T13:04:44.916Z,6.55
2023-02-12T13:07:38.495Z,6.00
2023-02-12T13:10:43.147Z,6.17
2023-02-12T13:13:26.391Z,5.90
2023-02-12T13:16:11.449Z,7.13
2023-02-12T13:18:51.204Z,7.80
2023-02-12T13:21:43.445Z,7.10
2023-02-12T13:24:38.675Z,6.57
2023-02-12T13:27:17.237Z,6.43
2023-02-12T13:29:53.014Z,5.93
2023-02-12T13:32:24.379Z,6.50
2023-02-12T13:34:54.232Z,6.45
2023-02-12T13:37:54.858Z,5.65
2023-02-12T13:40:28.333Z,7.22
2023-02-12T13:43:19.090Z,7.05
2023-02-12T13:46:14.216Z,5.97
2023-02-12T13:49:16.772Z,5.70
2023-02-12T13:51:57.383Z,5.18
2023-02-12T13:54:41.140Z,5.68
2023-02-12T13:57:13.765Z,5.85
2023-02-12T13:59:44.362Z,6.57
2023-02-12T14:02:33.835Z,5.60
2023-02-12T14:05:16.350Z,5.25
2023-02-12T14:07:48.000Z,7.40
2023-02-12T14:10:41.870Z,6.05
2023-02-12T14:13:17.789Z,5.85
2023-02-12T14:16:40.330Z,5.35
2023-02-12T14:19:38.526Z,5.50
2023-02-12T14:22:35.202Z,5.60
2023-02-12T14:25:15.106Z,4.68
2023-02-12T14:27:45.512Z,5.30
2023-02-12T14:30:13.317Z,5.53
2023-02-12T14:32:56.080Z,5.25
2023-02-12T14:35:26.266Z,5.07
2023-02-12T14:37:58.831Z,5.97
2023-02-12T14:40:40.715Z,4.95
2023-02-12T14:43:29.813Z,5.03
2023-02-12T14:45:59.999Z,4.88
2023-02-12T14:48:51.169Z,5.40
2023-02-12T14:52:00.053Z,6.35
2023-02-12T14:54:49.979Z,4.88
2023-02-12T14:57:29.604Z,4.70
2023-02-12T15:00:06.156Z,4.90
2023-02-12T15:02:36.547Z,4.80
2023-02-12T15:05:16.546Z,5.25
2023-02-12T15:07:49.327Z,4.45
2023-02-12T15:10:20.721Z,5.38
2023-02-12T15:13:18.903Z,4.43
2023-02-12T15:16:09.551Z,3.88
2023-02-12T15:19:06.668Z,4.50
2023-02-12T15:21:35.800Z,5.00
2023-02-12T15:24:09.331Z,4.68
2023-02-12T15:26:41.863Z,4.63
2023-02-12T15:29:52.716Z,5.20
2023-02-12T15:32:27.400Z,5.63
2023-02-12T15:34:56.271Z,4.95
2023-02-12T15:37:27.510Z,5.13
2023-02-12T15:40:00.564Z,5.03
2023-02-12T15:42:30.914Z,6.13
2023-02-12T15:45:10.732Z,6.63
2023-02-12T15:47:38.280Z,6.03
2023-02-12T15:50:06.349Z,5.75
2023-02-12T15:52:38.879Z,5.78
2023-02-12T15:55:14.334Z,5.75
2023-02-12T15:57:44.073Z,6.43
2023-02-12T16:00:28.979Z,6.07
2023-02-12T16:02:56.679Z,6.40
2023-02-12T16:05:25.250Z,6.25
2023-02-12T16:07:53.610Z,5.18
2023-02-12T16:10:21.942Z,6.05
2023-02-12T16:12:51.051Z,6.18
2023-02-12T16:15:30.796Z,6.15
2023-02-12T16:18:00.001Z,6.20
2023-02-12T16:20:30.883Z,6.43
2023-02-12T16:22:59.843Z,6.03
2023-02-12T16:25:29.136Z,6.40
2023-02-12T16:28:07.577Z,6.03
2023-02-12T16:30:42.887Z,6.18
2023-02-12T16:33:32.192Z,6.03
2023-02-12T16:36:35.070Z,6.72
2023-02-12T16:39:08.602Z,5.72
2023-02-12T16:41:53.802Z,6.70
2023-02-12T16:44:26.205Z,7.13
2023-02-12T16:46:56.668Z,7.35
2023-02-12T16:49:26.675Z,7.95
2023-02-12T16:52:14.431Z,9.38
2023-02-12T16:54:42.020Z,9.30
2023-02-12T16:57:12.469Z,8.27
2023-02-12T16:59:43.396Z,8.10
2023-02-12T17:02:14.094Z,8.07
2023-02-12T17:04:42.454Z,8.45
2023-02-12T17:07:22.566Z,8.40
2023-02-12T17:09:50.515Z,8.40
2023-02-12T17:12:18.227Z,8.52
2023-02-12T17:14:45.782Z,8.13
2023-02-12T17:17:13.221Z,8.60
2023-02-12T17:19:40.750Z,9.32
2023-02-12T17:22:17.681Z,8.27
2023-02-12T17:24:49.448Z,8.40
2023-02-12T17:27:20.739Z,8.48
2023-02-12T17:29:48.191Z,7.47
2023-02-12T17:32:16.444Z,7.50
2023-02-12T17:34:49.277Z,8.05
2023-02-12T17:37:18.439Z,6.95
2023-02-12T17:39:45.954Z,8.70
2023-02-12T17:42:13.496Z,8.10
2023-02-12T17:44:41.706Z,9.35
2023-02-12T17:47:09.245Z,8.48
2023-02-12T17:49:38.735Z,9.45
2023-02-12T17:52:07.478Z,10.02
2023-02-12T17:54:35.164Z,9.65
2023-02-12T17:57:02.996Z,9.73
2023-02-12T17:59:30.593Z,10.55
2023-02-12T18:02:01.306Z,9.20
2023-02-12T18:04:28.917Z,9.63
2023-02-12T18:06:57.742Z,10.50
2023-02-12T18:09:25.248Z,10.15
2023-02-12T18:11:52.914Z,10.90
2023-02-12T18:14:20.425Z,10.82
2023-02-12T18:16:47.924Z,9.98
2023-02-12T18:19:15.633Z,11.07
2023-02-12T18:21:43.087Z,13.05
2023-02-12T18:24:11.087Z,13.30
2023-02-12T18:26:38.484Z,11.20
2023-02-12T18:29:06.112Z,10.60
2023-02-12T18:31:33.787Z,11.30
2023-02-12T18:34:01.313Z,12.35
2023-02-12T18:36:28.776Z,11.85
2023-02-12T18:38:56.262Z,10.63
2023-02-12T18:41:26.405Z,12.13
2023-02-12T18:43:54.892Z,12.05
2023-02-12T18:46:28.726Z,13.15
2023-02-12T18:48:57.244Z,12.88
2023-02-12T18:51:27.793Z,12.70
2023-02-12T18:54:05.267Z,12.13
2023-02-12T18:56:36.797Z,11.05
2023-02-12T18:59:05.446Z,10.73
2023-02-12T19:01:34.999Z,12.05
2023-02-12T19:04:05.115Z,13.82
2023-02-12T19:06:34.411Z,13.20
2023-02-12T19:09:03.740Z,13.18
2023-02-12T19:11:31.427Z,12.57
2023-02-12T19:13:59.194Z,12.05
2023-02-12T19:16:27.266Z,11.25
2023-02-12T19:18:58.938Z,11.32
2023-02-12T19:21:26.571Z,12.13
2023-02-12T19:23:56.231Z,11.57
2023-02-12T19:26:24.661Z,11.63
2023-02-12T19:28:52.291Z,12.25
2023-02-12T19:31:23.385Z,14.52
2023-02-12T19:33:55.709Z,13.65
2023-02-12T19:36:24.658Z,13.77
2023-02-12T19:38:52.278Z,14.95
2023-02-12T19:41:23.896Z,14.98
2023-02-12T19:43:59.764Z,14.55
2023-02-12T19:46:30.364Z,13.93
2023-02-12T19:49:02.714Z,12.77
2023-02-12T19:51:31.027Z,13.80
2023-02-12T19:54:02.684Z,12.90
2023-02-12T19:56:30.733Z,13.25
2023-02-12T19:58:58.969Z,13.32
2023-02-12T20:01:27.197Z,13.00
2023-02-12T20:03:55.356Z,12.20
2023-02-12T20:06:25.534Z,11.45
2023-02-12T20:08:53.338Z,11.57
2023-02-12T20:11:23.582Z,13.73
2023-02-12T20:13:51.393Z,13.35
2023-02-12T20:16:21.850Z,12.40
2023-02-12T20:18:52.887Z,13.15
2023-02-12T20:21:24.966Z,11.45
2023-02-12T20:23:52.474Z,10.98
2023-02-12T20:26:20.042Z,9.90
2023-02-12T20:28:48.966Z,10.98
2023-02-12T20:31:20.663Z,10.98
2023-02-12T20:33:52.934Z,9.40
2023-02-12T20:36:20.382Z,9.27
2023-02-12T20:38:52.037Z,9.65
2023-02-12T20:41:19.777Z,9.02
2023-02-12T20:43:47.319Z,10.07
2023-02-12T20:46:17.351Z,11.00
2023-02-12T20:48:44.965Z,9.95
2023-02-12T20:51:20.874Z,9.85
2023-02-12T20:53:49.045Z,9.45
2023-02-12T20:56:20.061Z,10.85
2023-02-12T20:58:48.142Z,10.93
2023-02-12T21:01:19.053Z,10.60
2023-02-12T21:03:46.972Z,10.32
2023-02-12T21:06:15.192Z,10.25
2023-02-12T21:08:43.339Z,10.32
2023-02-12T21:11:17.248Z,11.45
2023-02-12T21:13:58.532Z,10.73
2023-02-12T21:16:34.532Z,10.68
2023-02-12T21:19:02.928Z,10.07
2023-02-12T21:21:33.201Z,10.07
2023-02-12T21:24:02.324Z,10.48
2023-02-12T21:26:32.026Z,11.32
2023-02-12T21:29:01.054Z,12.73
2023-02-12T21:31:34.974Z,12.60
2023-02-12T21:34:05.007Z,13.13
2023-02-12T21:36:35.685Z,12.10
2023-02-12T21:39:07.440Z,13.27
2023-02-12T21:41:37.947Z,14.43
2023-02-12T21:44:17.488Z,14.48
2023-02-12T21:46:46.152Z,14.90
2023-02-12T21:49:17.583Z,14.55
2023-02-12T21:51:45.442Z,13.10
2023-02-12T21:54:17.934Z,13.75
2023-02-12T21:56:47.508Z,12.98
2023-02-12T21:59:15.235Z,13.77
2023-02-12T22:01:47.112Z,14.82
2023-02-12T22:04:15.640Z,15.10
2023-02-12T22:06:46.182Z,14.20
2023-02-12T22:09:16.368Z,12.95
2023-02-12T22:11:44.269Z,11.23
2023-02-12T22:14:15.371Z,12.48
2023-02-12T22:16:43.045Z,16.63
2023-02-12T22:19:10.527Z,18.52
2023-02-12T22:21:41.067Z,21.38
2023-02-12T22:24:11.904Z,17.58
2023-02-12T22:26:39.383Z,12.48
2023-02-12T22:29:09.670Z,10.98
2023-02-12T22:31:39.699Z,8.73
2023-02-12T22:34:12.666Z,9.25
2023-02-12T22:36:41.217Z,9.65
2023-02-12T22:39:10.009Z,9.98
2023-02-12T22:41:38.104Z,9.98
2023-02-12T22:44:05.639Z,10.98
2023-02-12T22:46:33.705Z,14.25
2023-02-12T22:49:01.153Z,17.10
2023-02-12T22:51:31.418Z,26.45
2023-02-12T22:53:59.439Z,32.30
2023-02-12T22:56:27.251Z,24.92
2023-02-12T22:58:59.672Z,18.20
2023-02-12T23:01:29.131Z,12.77
2023-02-12T23:03:57.364Z,11.05
2023-02-12T23:06:30.534Z,9.20
2023-02-12T23:09:01.279Z,8.13
2023-02-12T23:11:30.480Z,7.03
2023-02-12T23:13:58.716Z,6.72
2023-02-12T23:16:26.513Z,9.15
2023-02-12T23:18:58.644Z,9.80
2023-02-12T23:21:27.972Z,9.05
2023-02-12T23:23:56.351Z,9.18
2023-02-12T23:26:24.096Z,9.15
2023-02-12T23:28:51.694Z,9.07
2023-02-12T23:31:19.380Z,9.45
2023-02-12T23:33:47.034Z,8.35
2023-02-12T23:36:15.280Z,8.18
2023-02-12T23:38:42.690Z,7.50
2023-02-12T23:41:10.227Z,7.60
2023-02-12T23:43:37.711Z,8.20
2023-02-12T23:46:05.434Z,7.72
2023-02-12T23:48:32.915Z,7.55
2023-02-12T23:51:00.487Z,6.95
2023-02-12T23:53:27.919Z,7.03
2023-02-12T23:55:55.427Z,7.57
2023-02-12T23:58:23.048Z,7.63
